Nova Olimpia, Brazil
Current Conditions -  °F | °C
As of 1:46 AM on Thursday 27 Nov 2014 (Local Time) from SBMG Reporting Station
Clear Clear  
Wind Chill: 75°   Ceiling: Unl
Heat Index: 75°   Visibility: 6mi
Dew Point: 70°   Wind: 5mph
Humidity: 83%   Direction: 340°NNW
Pressure: 29.83"   Gusts: NA
Location:  23.47°S, 53.09°W
Report Text: SBMG 270346Z 34004KT CAVOK 24/21 Q1010
Loading
Personal Weather Stations






























Interactive Weather Map New forecast layout! Learn more

10-Day Weather Forecast

Advertisements
Track Severe Weather on mobile